메인 페이지
METAR-TAF:

METAR-TAF

공항 :

코나크리, 기니

위도: 09-34N, 경도: 013-37W, 고도: 26m

현재 날씨관측

예보는 1 시간 26분 전, 23:00시(UTC)에 발표되었습니다.
6kt
온도 25°C
습도 94%
기압 1013 hPa
시정 10km 이상
고도 1500ft 상공 구름 보통
고도 11000ft 상공 구름 많음

METAR: GUCY 212300Z 19006KT 9999 SCT015 BKN110 25/24 Q1013 NOSIG

시각: 00:26 (00:26 UTC)

예보

예보는 1 시간 26분 전, 23:00시(UTC)에 발표되었습니다.
예보 대상 시간: 22일 00시부터 23일 06시까지 (UTC)
서남서6kt
시정 10km 이상
고도 1500ft 상공 구름 조금
고도 11000ft 상공 구름 보통
일시적
22일 00시부터 22일 06시까지 (UTC)
북북서10kt
시정: 7000m
고도 1300ft 상공 구름 보통
고도 10000ft 상공 구름 많음
약한비
전환 중
22일 08시부터 22일 12시까지 (UTC)
여러 방향의 바람 2kt
시정: 5000m
고도 1200ft 상공 구름 많음
고도 2300ft 상공 구름 조금, 적란운.
고도 9000ft 상공 흐림
뇌우, 약한비

TAF: GUCY 212300Z 2200/2306 24006KT 9999 FEW015 SCT110 TEMPO 2200/2206 34010KT 7000 -RA SCT013 BKN100 BECMG 2208/2212 VRB02KT 5000 -TSRA BKN012 FEW023CB OVC090

4,000개 이상의 공항 관측 자료 및 예보 (METAR 및 TAF 보고).

지도상에서 검색 가능한 기상관측소가 노란 점과 빨간 점으로 표시되어 있습니다.

기상관측소 명을 보려면 표시 위로 마우스를 이동하세요.

날씨 관측과 예보를 보려면 클릭하세요.

지도 변경 : 확대하려면 엑스 표시가 있는 녹색 버튼, 축소하려면 빼기 표시가 있는 녹색 버튼, 다음 페이지의 지도를 보려면 녹색 화살표를 클릭하세요.


METAR-TAF: